Time;durP1;ratioP1;P1;durP2;ratioP2;P2;SDS_P1;SDS_P2;PMS_P1;PMS_P2;Temp;Humidity;BMP_temperature;BMP_pressure;BME280_temperature;BME280_humidity;BME280_pressure;Samples;Min_cycle;Max_cycle;Signal;HPM_P1;HPM_P2
2022/03/01 00:00:56;;;;;;;;;;;;;;;-1.26;100.00;102801.00;5210504;28;19913;-62
2022/03/01 00:03:26;;;;;;;;;;;;;;;-1.26;100.00;102798.34;5210345;28;20016;-62
2022/03/01 00:05:57;;;;;;;;;;;;;;;-1.26;100.00;102794.88;5210527;28;20357;-62
2022/03/01 00:08:27;;;;;;;;;;;;;;;-1.19;100.00;102796.88;5210114;28;20440;-62
2022/03/01 00:10:57;;;;;;;;;;;;;;;-1.04;100.00;102798.19;5210168;28;20320;-62
2022/03/01 00:13:28;;;;;;;;;;;;;;;-0.97;100.00;102790.56;5210163;28;20376;-62
2022/03/01 00:15:58;;;;;;;;;;;;;;;-0.87;100.00;102790.59;5209806;28;19917;-62
2022/03/01 00:18:28;;;;;;;;;;;;;;;-0.79;100.00;102790.75;5210003;28;19913;-63
2022/03/01 00:20:59;;;;;;;;;;;;;;;-1.06;100.00;102738.31;5209793;28;19921;-62
2022/03/01 00:23:29;;;;;;;;;;;;;;;-0.71;100.00;102794.41;5209634;28;19913;-62
2022/03/01 00:25:59;;;;;;;;;;;;;;;-0.69;100.00;102791.63;5210315;28;19975;-62
2022/03/01 00:28:30;;;;;;;;;;;;;;;-0.65;100.00;102793.03;5209788;28;20007;-67
2022/03/01 00:31:00;;;;;;;;;;;;;;;-0.56;100.00;102789.56;5227233;28;19913;-62
2022/03/01 00:33:31;;;;;;;;;;;;;;;-0.48;100.00;102789.72;5209453;28;19912;-62
2022/03/01 00:36:01;;;;;;;;;;;;;;;-0.40;100.00;102789.88;5209581;28;19971;-63
2022/03/01 00:38:32;;;;;;;;;;;;;;;-0.37;100.00;102797.56;5209774;28;20288;-63
2022/03/01 00:41:02;;;;;;;;;;;;;;;-0.38;100.00;102800.38;5209472;28;19917;-63
2022/03/01 00:43:33;;;;;;;;;;;;;;;-0.35;100.00;102792.97;5209517;28;19923;-63
2022/03/01 00:46:03;;;;;;;;;;;;;;;-0.30;100.00;102792.56;5209578;28;19913;-64
2022/03/01 00:48:33;;;;;;;;;;;;;;;-0.24;100.00;102799.13;5209561;28;19919;-63
2022/03/01 00:51:04;;;;;;;;;;;;;;;-0.24;100.00;102804.44;5209348;28;20349;-63
2022/03/01 00:53:34;;;;;;;;;;;;;;;-0.20;100.00;102806.69;5226885;28;20365;-63
2022/03/01 00:56:04;;;;;;;;;;;;;;;-0.15;100.00;102809.75;5209090;28;19917;-64
2022/03/01 00:58:35;;;;;;;;;;;;;;;-0.10;100.00;102806.69;5209285;28;19913;-62
2022/03/01 01:01:05;;;;;;;;;;;;;;;-0.03;100.00;102800.69;5227294;28;20014;-62
2022/03/01 01:03:36;;;;;;;;;;;;;;;-0.04;100.00;102796.38;5226834;28;19912;-64
2022/03/01 01:06:06;;;;;;;;;;;;;;;-0.02;100.00;102806.84;5209328;28;19959;-63
2022/03/01 01:08:36;;;;;;;;;;;;;;;-0.01;100.00;102806.72;5209088;28;19913;-63
2022/03/01 01:11:07;;;;;;;;;;;;;;;0.00;100.00;102800.41;5227042;28;20280;-66
2022/03/01 01:13:37;;;;;;;;;;;;;;;0.03;100.00;102801.09;5226810;28;20286;-63
2022/03/01 01:16:07;;;;;;;;;;;;;;;0.05;100.00;102804.44;5226944;28;19924;-63
2022/03/01 01:18:43;;;;;;;;;;;;;;;0.07;100.00;102797.19;5208995;28;19917;-63
2022/03/01 01:21:13;;;;;;;;;;;;;;;0.09;100.00;102803.19;5208699;28;19917;-63
2022/03/01 01:23:43;;;;;;;;;;;;;;;0.08;100.00;102790.91;5208762;28;20455;-63
2022/03/01 01:26:14;;;;;;;;;;;;;;;0.08;100.00;102798.88;5208777;28;19914;-63
2022/03/01 01:28:44;;;;;;;;;;;;;;;0.07;100.00;102792.72;5208949;28;20300;-63
2022/03/01 01:31:14;;;;;;;;;;;;;;;0.08;100.00;102793.56;5208878;28;19964;-63
2022/03/01 01:33:45;;;;;;;;;;;;;;;0.05;100.00;102788.50;5208337;28;19948;-63
2022/03/01 01:36:15;;;;;;;;;;;;;;;0.08;100.00;102782.94;5208735;28;19917;-63
2022/03/01 01:38:45;;;;;;;;;;;;;;;0.07;100.00;102787.41;5208588;28;19913;-63
2022/03/01 01:41:16;;;;;;;;;;;;;;;0.07;100.00;102787.41;5208468;28;20415;-63
2022/03/01 01:43:46;;;;;;;;;;;;;;;0.09;100.00;102784.59;5208363;28;20004;-63
2022/03/01 01:46:17;;;;;;;;;;;;;;;0.20;100.00;102787.97;5208480;28;20011;-63
2022/03/01 01:48:47;;;;;;;;;;;;;;;0.27;100.00;102786.44;5226371;28;19917;-63
2022/03/01 01:51:17;;;;;;;;;;;;;;;0.36;100.00;102795.34;5208239;28;19940;-63
2022/03/01 01:53:48;;;;;;;;;;;;;;;0.48;100.00;102796.88;5226061;28;19912;-62
2022/03/01 01:56:18;;;;;;;;;;;;;;;0.51;100.00;102795.78;5208206;28;20007;-62
2022/03/01 01:58:48;;;;;;;;;;;;;;;0.48;100.00;102804.03;5226192;28;19921;-62
2022/03/01 02:01:19;;;;;;;;;;;;;;;0.46;100.00;102798.84;5208188;28;19913;-64
2022/03/01 02:03:49;;;;;;;;;;;;;;;0.47;100.00;102802.34;5207888;28;19919;-63
2022/03/01 02:06:19;;;;;;;;;;;;;;;0.44;100.00;102797.31;5208350;28;19912;-63
2022/03/01 02:08:50;;;;;;;;;;;;;;;0.39;100.00;102789.75;5207950;28;20015;-65
2022/03/01 02:11:21;;;;;;;;;;;;;;;0.38;100.00;102784.59;5207862;28;19974;-64
2022/03/01 02:13:51;;;;;;;;;;;;;;;0.30;100.00;102777.31;5207867;28;19913;-63
2022/03/01 02:16:21;;;;;;;;;;;;;;;0.29;100.00;102781.78;5207878;28;19921;-63
2022/03/01 02:18:52;;;;;;;;;;;;;;;0.29;100.00;102776.47;5225802;28;20400;-64
2022/03/01 02:21:23;;;;;;;;;;;;;;;0.34;100.00;102778.72;5207094;28;19917;-62
2022/03/01 02:23:53;;;;;;;;;;;;;;;0.39;100.00;102781.78;5207570;28;19913;-62
2022/03/01 02:26:23;;;;;;;;;;;;;;;0.38;100.00;102780.13;5226236;28;19912;-63
2022/03/01 02:28:54;;;;;;;;;;;;;;;0.32;100.00;102776.19;5207769;28;19913;-63
2022/03/01 02:31:24;;;;;;;;;;;;;;;0.28;100.00;102776.66;5207608;28;19940;-63
2022/03/01 02:33:54;;;;;;;;;;;;;;;0.24;100.00;102773.44;5207349;28;19912;-62
2022/03/01 02:36:25;;;;;;;;;;;;;;;0.19;100.00;102764.19;5207635;28;19916;-62
2022/03/01 02:38:56;;;;;;;;;;;;;;;0.12;100.00;102765.72;5207641;28;19924;-63
2022/03/01 02:41:26;;;;;;;;;;;;;;;0.07;100.00;102768.81;5207454;28;19924;-62
2022/03/01 02:43:57;;;;;;;;;;;;;;;0.03;100.00;102758.59;5207426;28;19917;-62
2022/03/01 02:46:27;;;;;;;;;;;;;;;-0.01;100.00;102760.72;5207582;28;19919;-63
2022/03/01 02:48:57;;;;;;;;;;;;;;;-0.05;100.00;102759.31;5207390;28;19920;-64
2022/03/01 02:51:28;;;;;;;;;;;;;;;-0.10;100.00;102753.59;5207343;28;20087;-62
2022/03/01 02:53:58;;;;;;;;;;;;;;;-0.11;100.00;102766.03;5225170;28;20387;-62
2022/03/01 02:56:28;;;;;;;;;;;;;;;-0.08;100.00;102764.91;5207226;28;19979;-63
2022/03/01 02:58:59;;;;;;;;;;;;;;;-0.09;100.00;102761.41;5207458;28;20008;-62
2022/03/01 03:01:30;;;;;;;;;;;;;;;-0.08;100.00;102760.44;5207308;28;20007;-62
2022/03/01 03:04:00;;;;;;;;;;;;;;;-0.08;100.00;102762.25;5207236;28;19921;-62
2022/03/01 03:06:31;;;;;;;;;;;;;;;-0.07;100.00;102755.97;5207262;28;19920;-62
2022/03/01 03:09:01;;;;;;;;;;;;;;;-0.06;100.00;102755.84;5207600;28;19920;-63
2022/03/01 03:11:31;;;;;;;;;;;;;;;-0.02;100.00;102751.09;5207174;28;20022;-62
2022/03/01 03:14:02;;;;;;;;;;;;;;;-0.02;100.00;102757.22;5224876;28;19916;-62
2022/03/01 03:16:33;;;;;;;;;;;;;;;-0.32;100.00;102716.69;5207263;28;19921;-62
2022/03/01 03:19:03;;;;;;;;;;;;;;;0.08;100.00;102767.00;5207033;28;20063;-62
2022/03/01 03:21:33;;;;;;;;;;;;;;;0.17;100.00;102768.81;5207180;28;19958;-64
2022/03/01 03:24:04;;;;;;;;;;;;;;;0.20;100.00;102766.72;5224887;28;20039;-63
2022/03/01 03:26:34;;;;;;;;;;;;;;;0.23;100.00;102777.06;5207150;28;19913;-63
2022/03/01 03:29:05;;;;;;;;;;;;;;;0.24;100.00;102762.81;5207470;28;19962;-63
2022/03/01 03:31:36;;;;;;;;;;;;;;;0.28;100.00;102768.69;5207116;28;20007;-63
2022/03/01 03:34:08;;;;;;;;;;;;;;;0.33;100.00;102764.59;5210298;28;19913;-67
2022/03/01 03:36:39;;;;;;;;;;;;;;;0.37;100.00;102765.16;5210861;28;20016;-62
2022/03/01 03:39:10;;;;;;;;;;;;;;;0.37;100.00;102764.31;5210889;28;19913;-62
2022/03/01 03:41:40;;;;;;;;;;;;;;;0.37;100.00;102754.50;5210537;28;20300;-63
2022/03/01 03:44:10;;;;;;;;;;;;;;;0.40;100.00;102751.56;5210743;28;19912;-63
2022/03/01 03:46:41;;;;;;;;;;;;;;;0.44;100.00;102758.28;5210738;28;19913;-64
2022/03/01 03:49:11;;;;;;;;;;;;;;;0.49;100.00;102757.88;5210904;28;19952;-63
2022/03/01 03:51:42;;;;;;;;;;;;;;;0.52;100.00;102769.06;5228366;28;19921;-63
2022/03/01 03:54:12;;;;;;;;;;;;;;;0.57;100.00;102758.81;5210400;28;20269;-64
2022/03/01 03:56:43;;;;;;;;;;;;;;;0.60;100.00;102761.16;5210546;28;19987;-64
2022/03/01 03:59:13;;;;;;;;;;;;;;;0.64;100.00;102759.91;5210768;28;20235;-64
2022/03/01 04:01:43;;;;;;;;;;;;;;;0.66;100.00;102755.28;5210655;28;19963;-63
2022/03/01 04:04:14;;;;;;;;;;;;;;;0.75;100.00;102756.25;5210065;28;19913;-63
2022/03/01 04:06:44;;;;;;;;;;;;;;;0.78;100.00;102760.44;5210782;28;19979;-63
2022/03/01 04:09:14;;;;;;;;;;;;;;;0.80;100.00;102753.16;5210353;28;20399;-63
2022/03/01 04:11:45;;;;;;;;;;;;;;;0.83;100.00;102756.38;5210394;28;19916;-63
2022/03/01 04:14:17;;;;;;;;;;;;;;;0.89;100.00;102752.25;5210097;28;19931;-63
2022/03/01 04:16:47;;;;;;;;;;;;;;;0.93;100.00;102753.66;5210201;28;20376;-63
2022/03/01 04:19:18;;;;;;;;;;;;;;;0.99;100.00;102756.56;5210020;28;19952;-63
2022/03/01 04:21:48;;;;;;;;;;;;;;;1.05;100.00;102754.31;5210389;28;19916;-63
2022/03/01 04:24:18;;;;;;;;;;;;;;;1.02;100.00;102752.78;5209976;28;19920;-63
2022/03/01 04:26:49;;;;;;;;;;;;;;;1.03;100.00;102754.47;5210016;28;19943;-63
2022/03/01 04:29:19;;;;;;;;;;;;;;;1.01;100.00;102749.28;5210028;28;20339;-64
2022/03/01 04:31:50;;;;;;;;;;;;;;;0.98;100.00;102751.38;5209768;28;19920;-64
2022/03/01 04:34:20;;;;;;;;;;;;;;;0.96;100.00;102751.53;5227614;28;19912;-64
2022/03/01 04:36:50;;;;;;;;;;;;;;;0.98;100.00;102751.38;5227794;28;19923;-63
2022/03/01 04:39:21;;;;;;;;;;;;;;;0.97;100.00;102747.06;5209574;28;19912;-64
2022/03/01 04:41:51;;;;;;;;;;;;;;;0.95;100.00;102741.03;5209573;28;19924;-64
2022/03/01 04:44:22;;;;;;;;;;;;;;;1.01;100.00;102735.97;5208897;28;20365;-64
2022/03/01 04:46:53;;;;;;;;;;;;;;;1.07;100.00;102747.03;5227504;28;19955;-64
2022/03/01 04:49:23;;;;;;;;;;;;;;;1.10;100.00;102742.25;5209601;28;19991;-64
2022/03/01 04:51:54;;;;;;;;;;;;;;;1.12;100.00;102753.59;5209312;28;19913;-64
2022/03/01 04:54:24;;;;;;;;;;;;;;;1.13;100.00;102733.13;5209412;28;20019;-64
2022/03/01 04:56:54;;;;;;;;;;;;;;;1.13;100.00;102738.44;5209390;28;19924;-64
2022/03/01 04:59:25;;;;;;;;;;;;;;;1.14;100.00;102740.97;5227417;28;19913;-64
2022/03/01 05:01:55;;;;;;;;;;;;;;;1.12;100.00;102734.13;5227105;28;19913;-64
2022/03/01 05:04:25;;;;;;;;;;;;;;;1.11;100.00;102730.63;5208992;28;19921;-64
2022/03/01 05:06:56;;;;;;;;;;;;;;;1.11;100.00;102740.44;5209441;28;19913;-63
2022/03/01 05:09:26;;;;;;;;;;;;;;;1.11;100.00;102730.63;5209036;28;20226;-64
2022/03/01 05:11:57;;;;;;;;;;;;;;;1.13;100.00;102733.97;5209065;28;19935;-64
2022/03/01 05:14:27;;;;;;;;;;;;;;;1.11;100.00;102725.31;5208848;28;19913;-64
2022/03/01 05:16:57;;;;;;;;;;;;;;;1.07;100.00;102729.25;5208433;28;19928;-64
2022/03/01 05:19:29;;;;;;;;;;;;;;;1.05;100.00;102725.88;5208473;28;19913;-64
2022/03/01 05:21:59;;;;;;;;;;;;;;;1.04;100.00;102716.22;5208468;28;19983;-64
2022/03/01 05:24:30;;;;;;;;;;;;;;;1.02;100.00;102720.84;5208369;28;19913;-64
2022/03/01 05:27:00;;;;;;;;;;;;;;;0.99;100.00;102721.97;5208340;28;20420;-64
2022/03/01 05:29:30;;;;;;;;;;;;;;;0.99;100.00;102724.66;5208653;28;19920;-64
2022/03/01 05:32:01;;;;;;;;;;;;;;;0.95;100.00;102725.09;5208307;28;19944;-64
2022/03/01 05:34:31;;;;;;;;;;;;;;;0.94;100.00;102723.41;5208008;28;20384;-64
2022/03/01 05:37:02;;;;;;;;;;;;;;;0.93;100.00;102727.06;5208223;28;20328;-64
2022/03/01 05:39:32;;;;;;;;;;;;;;;0.92;100.00;102728.03;5208107;28;19956;-64
2022/03/01 05:42:03;;;;;;;;;;;;;;;0.96;100.00;102727.59;5207966;28;19917;-64
2022/03/01 05:44:34;;;;;;;;;;;;;;;1.02;100.00;102732.34;5207991;28;19913;-64
2022/03/01 05:47:04;;;;;;;;;;;;;;;1.04;100.00;102731.34;5208126;28;19924;-64
2022/03/01 05:49:34;;;;;;;;;;;;;;;1.05;100.00;102728.53;5207933;28;20072;-64
2022/03/01 05:52:05;;;;;;;;;;;;;;;1.07;100.00;102726.56;5207939;28;19912;-62
2022/03/01 05:54:35;;;;;;;;;;;;;;;1.10;100.00;102728.94;5226929;28;19990;-64
2022/03/01 05:57:06;;;;;;;;;;;;;;;1.12;100.00;102731.47;5207927;28;19969;-64
2022/03/01 05:59:36;;;;;;;;;;;;;;;1.12;100.00;102734.13;5207977;28;20389;-64
2022/03/01 06:02:07;;;;;;;;;;;;;;;1.15;100.00;102732.00;5207891;28;19936;-64
2022/03/01 06:04:37;;;;;;;;;;;;;;;1.17;100.00;102724.69;5225529;28;19966;-64
2022/03/01 06:07:07;;;;;;;;;;;;;;;1.19;100.00;102728.03;5207622;28;19920;-64
2022/03/01 06:09:38;;;;;;;;;;;;;;;1.23;100.00;102731.25;5207741;28;19912;-64
2022/03/01 06:12:08;;;;;;;;;;;;;;;1.25;100.00;102729.25;5207701;28;19920;-64
2022/03/01 06:14:38;;;;;;;;;;;;;;;1.23;100.00;102729.41;5207360;28;19916;-64
2022/03/01 06:17:09;;;;;;;;;;;;;;;1.20;100.00;102751.00;5225244;28;19917;-64
2022/03/01 06:19:39;;;;;;;;;;;;;;;1.16;100.00;102731.00;5207519;28;19919;-64
2022/03/01 06:22:10;;;;;;;;;;;;;;;1.15;100.00;102721.34;5207655;28;20007;-64
2022/03/01 06:24:41;;;;;;;;;;;;;;;1.13;100.00;102728.66;5225254;28;20292;-63
2022/03/01 06:27:11;;;;;;;;;;;;;;;1.15;100.00;102721.34;5207357;28;19913;-63
2022/03/01 06:29:42;;;;;;;;;;;;;;;1.16;100.00;102727.50;5225138;28;19913;-63
2022/03/01 06:32:12;;;;;;;;;;;;;;;1.14;100.00;102719.69;5207275;28;20366;-63
2022/03/01 06:34:43;;;;;;;;;;;;;;;1.14;100.00;102730.31;5207134;28;20007;-63
2022/03/01 06:37:13;;;;;;;;;;;;;;;1.11;100.00;102725.31;5207456;28;19943;-65
2022/03/01 06:39:44;;;;;;;;;;;;;;;1.15;100.00;102733.81;5206873;28;20373;-64
2022/03/01 06:42:14;;;;;;;;;;;;;;;1.16;100.00;102730.16;5207137;28;19920;-63
2022/03/01 06:44:45;;;;;;;;;;;;;;;1.13;100.00;102726.00;5207046;28;19963;-64
2022/03/01 06:47:15;;;;;;;;;;;;;;;1.14;100.00;102730.31;5207200;28;20419;-63
2022/03/01 06:49:45;;;;;;;;;;;;;;;1.15;100.00;102729.34;5207181;28;20333;-65
2022/03/01 06:52:16;;;;;;;;;;;;;;;1.15;100.00;102723.19;5206876;28;19912;-63
2022/03/01 06:54:46;;;;;;;;;;;;;;;1.15;100.00;102721.34;5206960;28;19913;-63
2022/03/01 06:57:18;;;;;;;;;;;;;;;1.17;100.00;102737.97;5224969;28;19917;-63
2022/03/01 06:59:48;;;;;;;;;;;;;;;1.20;100.00;102728.88;5206895;28;19919;-63
2022/03/01 07:02:18;;;;;;;;;;;;;;;1.23;100.00;102732.06;5207154;28;19913;-63
2022/03/01 07:04:49;;;;;;;;;;;;;;;1.31;100.00;102728.69;5224640;28;19913;-63
2022/03/01 07:07:19;;;;;;;;;;;;;;;1.42;100.00;102732.97;5207831;28;19920;-64
2022/03/01 07:09:49;;;;;;;;;;;;;;;1.49;100.00;102732.19;5211104;28;19913;-62
2022/03/01 07:12:19;;;;;;;;;;;;;;;1.57;100.00;102720.78;5211026;28;20241;-63
2022/03/01 07:14:50;;;;;;;;;;;;;;;1.67;100.00;102724.22;5228767;28;19996;-63
2022/03/01 07:17:21;;;;;;;;;;;;;;;1.75;100.00;102734.94;5211008;28;19921;-64
2022/03/01 07:19:51;;;;;;;;;;;;;;;1.82;100.00;102754.66;5210985;28;19924;-63
2022/03/01 07:22:21;;;;;;;;;;;;;;;1.87;100.00;102765.69;5211099;28;20292;-62
2022/03/01 07:24:52;;;;;;;;;;;;;;;1.91;100.00;102753.75;5210617;28;19967;-63
2022/03/01 07:27:22;;;;;;;;;;;;;;;2.00;100.00;102744.03;5210822;28;19924;-62
2022/03/01 07:29:52;;;;;;;;;;;;;;;2.07;100.00;102744.22;5210692;28;19921;-63
2022/03/01 07:32:23;;;;;;;;;;;;;;;2.11;100.00;102753.59;5210762;28;20017;-63
2022/03/01 07:34:53;;;;;;;;;;;;;;;2.12;100.00;102757.91;5210790;28;20003;-63
2022/03/01 07:37:23;;;;;;;;;;;;;;;2.14;100.00;102745.28;5210578;28;19920;-63
2022/03/01 07:39:55;;;;;;;;;;;;;;;2.19;100.00;102743.00;5210736;28;19913;-63
2022/03/01 07:42:26;;;;;;;;;;;;;;;2.22;100.00;102764.84;5210615;28;20007;-63
2022/03/01 07:44:56;;;;;;;;;;;;;;;2.25;100.00;102775.22;5210370;28;20479;-63
2022/03/01 07:47:26;;;;;;;;;;;;;;;2.31;100.00;102768.44;5210376;28;19935;-63
2022/03/01 07:49:57;;;;;;;;;;;;;;;2.32;100.00;102764.75;5210373;28;20019;-63
2022/03/01 07:52:27;;;;;;;;;;;;;;;2.36;100.00;102768.78;5210437;28;19913;-63
2022/03/01 07:54:58;;;;;;;;;;;;;;;2.40;100.00;102767.47;5210137;28;19995;-64
2022/03/01 07:57:28;;;;;;;;;;;;;;;2.46;100.00;102771.34;5210203;28;19939;-63
2022/03/01 07:59:59;;;;;;;;;;;;;;;2.51;100.00;102774.41;5210530;28;19920;-64
2022/03/01 08:02:29;;;;;;;;;;;;;;;2.25;100.00;102737.06;5210282;28;19933;-64
2022/03/01 08:05:01;;;;;;;;;;;;;;;2.67;100.00;102775.31;5210242;28;19917;-64
2022/03/01 08:07:33;;;;;;;;;;;;;;;2.73;100.00;102773.88;5210326;28;19913;-64
2022/03/01 08:10:03;;;;;;;;;;;;;;;2.80;100.00;102768.75;5209967;28;19917;-64
2022/03/01 08:12:34;;;;;;;;;;;;;;;2.86;100.00;102770.78;5227822;28;19920;-64
2022/03/01 08:15:04;;;;;;;;;;;;;;;2.94;100.00;102760.97;5209599;28;19967;-64
2022/03/01 08:17:35;;;;;;;;;;;;;;;3.05;100.00;102767.88;5209565;28;19917;-64
2022/03/01 08:20:07;;;;;;;;;;;;;;;3.15;100.00;102776.59;5208676;28;19924;-64
2022/03/01 08:22:37;;;;;;;;;;;;;;;3.26;100.00;102780.81;5209636;28;19920;-64
2022/03/01 08:25:07;;;;;;;;;;;;;;;3.35;100.00;102786.03;5209544;28;20381;-64
2022/03/01 08:27:38;;;;;;;;;;;;;;;3.46;100.00;102789.41;5209614;28;20288;-63
2022/03/01 08:30:08;;;;;;;;;;;;;;;3.57;100.00;102783.75;5209762;28;20293;-64
2022/03/01 08:32:39;;;;;;;;;;;;;;;3.71;100.00;102783.13;5209697;28;19985;-64
2022/03/01 08:35:09;;;;;;;;;;;;;;;3.83;100.00;102787.16;5209333;28;19913;-64
2022/03/01 08:37:40;;;;;;;;;;;;;;;3.96;100.00;102795.53;5227480;28;19917;-64
2022/03/01 08:40:11;;;;;;;;;;;;;;;4.12;100.00;102789.34;5209239;28;19983;-63
2022/03/01 08:42:41;;;;;;;;;;;;;;;4.26;100.00;102787.88;5227014;28;19928;-63
2022/03/01 08:45:12;;;;;;;;;;;;;;;4.40;100.00;102787.19;5209050;28;19939;-63
2022/03/01 08:47:42;;;;;;;;;;;;;;;4.54;100.00;102786.50;5209144;28;20328;-63
2022/03/01 08:50:13;;;;;;;;;;;;;;;4.62;100.00;102791.03;5209053;28;19916;-64
2022/03/01 08:52:43;;;;;;;;;;;;;;;4.71;100.00;102785.47;5209100;28;19920;-64
2022/03/01 08:55:13;;;;;;;;;;;;;;;4.72;100.00;102786.31;5208873;28;20261;-64
2022/03/01 08:57:44;;;;;;;;;;;;;;;4.77;100.00;102785.81;5208993;28;19917;-64
2022/03/01 09:00:15;;;;;;;;;;;;;;;4.72;100.00;102797.00;5208815;28;19919;-64
2022/03/01 09:02:45;;;;;;;;;;;;;;;4.75;100.00;102785.97;5208913;28;19935;-64
2022/03/01 09:05:15;;;;;;;;;;;;;;;4.74;100.00;102792.31;5208882;28;19913;-64
2022/03/01 09:07:46;;;;;;;;;;;;;;;4.86;100.00;102792.81;5208785;28;19913;-64
2022/03/01 09:10:21;;;;;;;;;;;;;;;4.96;100.00;102794.28;5208569;28;19978;-64
2022/03/01 09:12:52;;;;;;;;;;;;;;;5.05;100.00;102795.94;5208503;28;19935;-62
2022/03/01 09:15:23;;;;;;;;;;;;;;;5.14;100.00;102799.44;5208438;28;19923;-63
2022/03/01 09:17:54;;;;;;;;;;;;;;;5.27;100.00;102804.22;5208554;28;19964;-63
2022/03/01 09:20:25;;;;;;;;;;;;;;;5.34;100.00;102798.00;5208559;28;20436;-64
2022/03/01 09:22:56;;;;;;;;;;;;;;;5.43;100.00;102798.81;5208400;28;20333;-63
2022/03/01 09:25:27;;;;;;;;;;;;;;;5.47;100.00;102791.25;5208159;28;19919;-62
2022/03/01 09:27:58;;;;;;;;;;;;;;;5.45;100.00;102807.50;5208196;28;20357;-63
2022/03/01 09:30:29;;;;;;;;;;;;;;;5.50;100.00;102806.97;5208001;28;19912;-63
2022/03/01 09:32:59;;;;;;;;;;;;;;;5.62;100.00;102803.72;5208040;28;19912;-63
2022/03/01 09:35:30;;;;;;;;;;;;;;;5.58;100.00;102809.59;5207940;28;19999;-63
2022/03/01 09:38:00;;;;;;;;;;;;;;;5.61;100.00;102811.94;5208232;28;20284;-63
2022/03/01 09:40:31;;;;;;;;;;;;;;;5.68;100.00;102811.06;5225640;28;20377;-63
2022/03/01 09:43:01;;;;;;;;;;;;;;;5.86;100.00;102808.09;5207913;28;19920;-63
2022/03/01 09:45:32;;;;;;;;;;;;;;;5.98;100.00;102805.91;5207784;28;19963;-62
2022/03/01 09:48:02;;;;;;;;;;;;;;;6.07;100.00;102813.69;5207637;28;19917;-63
2022/03/01 09:50:33;;;;;;;;;;;;;;;6.16;100.00;102813.63;5208125;28;19920;-63
2022/03/01 09:53:03;;;;;;;;;;;;;;;6.35;100.00;102807.81;5207579;28;19963;-63
2022/03/01 09:55:34;;;;;;;;;;;;;;;6.44;100.00;102804.03;5207289;28;19941;-63
2022/03/01 09:58:04;;;;;;;;;;;;;;;6.56;100.00;102807.13;5225447;28;19917;-63
2022/03/01 10:00:34;;;;;;;;;;;;;;;6.57;100.00;102815.00;5207804;28;19920;-63
2022/03/01 10:03:07;;;;;;;;;;;;;;;6.74;100.00;102813.81;5207384;28;20059;-63
2022/03/01 10:05:41;;;;;;;;;;;;;;;6.86;100.00;102808.84;5207357;28;19932;-63
2022/03/01 10:08:16;;;;;;;;;;;;;;;7.00;100.00;102804.47;5207695;28;19920;-63
2022/03/01 10:10:47;;;;;;;;;;;;;;;7.17;100.00;102814.03;5207396;28;19920;-63
2022/03/01 10:13:21;;;;;;;;;;;;;;;7.31;100.00;102815.88;5225220;28;20344;-63
2022/03/01 10:16:08;;;;;;;;;;;;;;;7.28;100.00;102820.78;5207414;28;19912;-63
2022/03/01 10:18:40;;;;;;;;;;;;;;;7.37;100.00;102820.50;5207221;28;19917;-63
2022/03/01 10:21:12;;;;;;;;;;;;;;;7.48;100.00;102810.31;5207329;28;19912;-63
2022/03/01 10:23:46;;;;;;;;;;;;;;;7.54;100.00;102804.97;5207223;28;19913;-64
2022/03/01 10:26:18;;;;;;;;;;;;;;;7.62;100.00;102806.75;5206998;28;19919;-63
2022/03/01 10:28:49;;;;;;;;;;;;;;;7.70;100.00;102810.16;5206963;28;20008;-63
2022/03/01 10:31:27;;;;;;;;;;;;;;;7.64;100.00;102810.06;5224971;28;19913;-63
2022/03/01 10:33:58;;;;;;;;;;;;;;;7.49;100.00;102815.50;5206859;28;20285;-63
2022/03/01 10:36:30;;;;;;;;;;;;;;;7.55;100.00;102816.56;5207215;28;19917;-63
2022/03/01 10:39:01;;;;;;;;;;;;;;;7.68;100.00;102822.13;5206982;28;19912;-64
2022/03/01 10:41:33;;;;;;;;;;;;;;;7.68;100.00;102822.13;5206521;28;19917;-63
2022/03/01 10:44:04;;;;;;;;;;;;;;;7.71;100.00;102821.75;5206651;28;20385;-63
2022/03/01 10:46:39;;;;;;;;;;;;;;;7.75;100.00;102813.13;5206955;28;19951;-63
2022/03/01 10:49:10;;;;;;;;;;;;;;;7.91;100.00;102811.22;5207235;28;19913;-63
2022/03/01 10:51:48;;;;;;;;;;;;;;;8.04;100.00;102820.25;5207245;28;19917;-64
2022/03/01 10:54:25;;;;;;;;;;;;;;;8.16;100.00;102807.13;5207129;28;19944;-64
2022/03/01 10:56:55;;;;;;;;;;;;;;;8.38;100.00;102805.28;5225256;28;19952;-63
2022/03/01 10:59:27;;;;;;;;;;;;;;;8.62;100.00;102814.81;5207354;28;19987;-63
2022/03/01 11:01:57;;;;;;;;;;;;;;;8.81;100.00;102819.50;5207153;28;20015;-63
2022/03/01 11:04:28;;;;;;;;;;;;;;;8.95;100.00;102821.25;5207077;28;20008;-63
2022/03/01 11:07:03;;;;;;;;;;;;;;;9.12;100.00;102811.84;5207170;28;20023;-63
2022/03/01 11:09:33;;;;;;;;;;;;;;;9.23;100.00;102810.47;5224981;28;19971;-64
2022/03/01 11:12:05;;;;;;;;;;;;;;;9.33;100.00;102812.75;5207142;28;19917;-64
2022/03/01 11:14:43;;;;;;;;;;;;;;;9.44;100.00;102810.34;5207045;28;19960;-64
2022/03/01 11:17:29;;;;;;;;;;;;;;;9.58;98.72;102805.00;5207287;28;19961;-64
2022/03/01 11:19:59;;;;;;;;;;;;;;;9.59;96.52;102818.28;5207440;28;20376;-64
2022/03/01 11:22:32;;;;;;;;;;;;;;;9.62;97.23;102812.47;5207392;28;19966;-64
2022/03/01 11:25:03;;;;;;;;;;;;;;;9.48;95.48;102811.63;5206896;28;20004;-64
2022/03/01 11:27:42;;;;;;;;;;;;;;;9.52;98.48;102801.25;5207234;28;19999;-64
2022/03/01 11:30:13;;;;;;;;;;;;;;;9.44;97.64;102796.03;5207429;28;20445;-64
2022/03/01 11:32:45;;;;;;;;;;;;;;;9.34;92.52;102788.31;5206974;28;20384;-64
2022/03/01 11:35:17;;;;;;;;;;;;;;;9.26;95.22;102796.56;5206903;28;19913;-64
2022/03/01 11:37:57;;;;;;;;;;;;;;;9.28;100.00;102781.00;5206993;28;20381;-64
2022/03/01 11:40:30;;;;;;;;;;;;;;;9.24;96.49;102785.13;5206975;28;19919;-64
2022/03/01 11:43:17;;;;;;;;;;;;;;;9.04;93.23;102778.81;5252725;22;20336;-66
2022/03/01 11:45:49;;;;;;;;;;;;;;;9.02;97.94;102770.09;5221083;28;19916;-67
2022/03/01 11:48:28;;;;;;;;;;;;;;;8.90;97.06;102766.31;5227589;28;19912;-66
2022/03/01 11:51:04;;;;;;;;;;;;;;;9.02;100.00;102764.72;5245517;28;19916;-66
2022/03/01 11:53:35;;;;;;;;;;;;;;;9.10;99.43;102765.38;5228252;28;19916;-67
2022/03/01 11:56:07;;;;;;;;;;;;;;;9.16;100.00;102761.06;5230904;28;19919;-66
2022/03/01 11:58:37;;;;;;;;;;;;;;;9.20;100.00;102751.56;5231304;28;19952;-66
2022/03/01 12:01:09;;;;;;;;;;;;;;;9.28;99.54;102756.75;5230950;28;19974;-66
2022/03/01 12:03:39;;;;;;;;;;;;;;;9.31;98.88;102750.13;5230784;28;19991;-66
2022/03/01 12:06:11;;;;;;;;;;;;;;;9.44;99.56;102748.31;5231188;28;20027;-66
2022/03/01 12:08:42;;;;;;;;;;;;;;;9.58;97.37;102751.88;5230825;28;19917;-66
2022/03/01 12:11:12;;;;;;;;;;;;;;;9.72;97.03;102745.50;5231113;28;19966;-65
2022/03/01 12:13:43;;;;;;;;;;;;;;;9.81;95.21;102736.19;5230740;28;20003;-66
2022/03/01 12:16:27;;;;;;;;;;;;;;;9.89;92.02;102737.84;5249123;28;20344;-66
2022/03/01 12:19:09;;;;;;;;;;;;;;;10.01;91.86;102744.28;5248966;28;20294;-65
2022/03/01 12:21:40;;;;;;;;;;;;;;;10.11;94.46;102749.25;5230849;28;19924;-66
2022/03/01 12:24:11;;;;;;;;;;;;;;;10.23;95.73;102750.34;5230781;28;20003;-66
2022/03/01 12:26:44;;;;;;;;;;;;;;;10.18;91.75;102752.81;5230921;28;20003;-66
2022/03/01 12:29:17;;;;;;;;;;;;;;;10.04;88.34;102749.28;5248388;28;19912;-67
2022/03/01 12:32:01;;;;;;;;;;;;;;;9.92;90.28;102745.53;5230367;28;19920;-66
2022/03/01 12:34:33;;;;;;;;;;;;;;;9.74;89.01;102746.13;5230298;28;20371;-66
2022/03/01 12:37:05;;;;;;;;;;;;;;;9.61;88.83;102753.34;5229929;28;20375;-67
2022/03/01 12:39:36;;;;;;;;;;;;;;;9.60;89.19;102765.16;5230182;28;19912;-67
2022/03/01 12:42:07;;;;;;;;;;;;;;;9.62;91.41;102760.41;5230280;28;19916;-66
2022/03/01 12:44:37;;;;;;;;;;;;;;;9.71;97.24;102768.09;5230345;28;20414;-66
2022/03/01 12:47:07;;;;;;;;;;;;;;;9.80;100.00;102755.28;5230311;28;19916;-66
2022/03/01 12:49:38;;;;;;;;;;;;;;;9.88;96.58;102748.81;5230550;28;20375;-66
2022/03/01 12:52:13;;;;;;;;;;;;;;;9.84;92.00;102743.00;5248584;28;19916;-65
2022/03/01 12:54:46;;;;;;;;;;;;;;;9.93;97.04;102749.88;5230027;28;19922;-64